sensor_id;sensor_type;location;lat;lon;timestamp;P1;durP1;ratioP1;P2;durP2;ratioP2
62582;SDS011;48641;51.676;5.808;2024-01-06T00:01:00;6.95;;;3.15;;
62582;SDS011;48641;51.676;5.808;2024-01-06T00:03:25;7.88;;;3.22;;
62582;SDS011;48641;51.676;5.808;2024-01-06T00:05:51;6.78;;;2.92;;
62582;SDS011;48641;51.676;5.808;2024-01-06T00:08:16;7.07;;;3.25;;
62582;SDS011;48641;51.676;5.808;2024-01-06T00:10:42;5.80;;;2.70;;
62582;SDS011;48641;51.676;5.808;2024-01-06T00:13:09;6.35;;;3.20;;
62582;SDS011;48641;51.676;5.808;2024-01-06T00:15:35;5.95;;;2.83;;
62582;SDS011;48641;51.676;5.808;2024-01-06T00:18:01;6.22;;;3.13;;
62582;SDS011;48641;51.676;5.808;2024-01-06T00:20:27;6.10;;;2.90;;
62582;SDS011;48641;51.676;5.808;2024-01-06T00:22:52;7.15;;;3.10;;
62582;SDS011;48641;51.676;5.808;2024-01-06T00:25:18;6.32;;;2.88;;
62582;SDS011;48641;51.676;5.808;2024-01-06T00:27:43;7.00;;;2.70;;
62582;SDS011;48641;51.676;5.808;2024-01-06T00:30:09;5.10;;;2.67;;
62582;SDS011;48641;51.676;5.808;2024-01-06T00:32:35;5.68;;;2.80;;
62582;SDS011;48641;51.676;5.808;2024-01-06T00:35:00;8.05;;;3.30;;
62582;SDS011;48641;51.676;5.808;2024-01-06T00:37:26;7.07;;;3.00;;
62582;SDS011;48641;51.676;5.808;2024-01-06T00:39:51;7.35;;;2.88;;
62582;SDS011;48641;51.676;5.808;2024-01-06T00:42:17;6.22;;;2.78;;
62582;SDS011;48641;51.676;5.808;2024-01-06T00:44:42;6.78;;;2.92;;
62582;SDS011;48641;51.676;5.808;2024-01-06T00:47:10;7.10;;;3.00;;
62582;SDS011;48641;51.676;5.808;2024-01-06T00:49:36;7.18;;;2.70;;
62582;SDS011;48641;51.676;5.808;2024-01-06T00:52:01;6.68;;;2.78;;
62582;SDS011;48641;51.676;5.808;2024-01-06T00:54:27;6.72;;;2.70;;
62582;SDS011;48641;51.676;5.808;2024-01-06T00:56:52;6.85;;;2.60;;
62582;SDS011;48641;51.676;5.808;2024-01-06T00:59:18;5.68;;;2.35;;
62582;SDS011;48641;51.676;5.808;2024-01-06T01:01:43;6.25;;;2.88;;
62582;SDS011;48641;51.676;5.808;2024-01-06T01:04:09;5.93;;;2.53;;
62582;SDS011;48641;51.676;5.808;2024-01-06T01:06:36;6.30;;;2.60;;
62582;SDS011;48641;51.676;5.808;2024-01-06T01:09:02;5.30;;;2.40;;
62582;SDS011;48641;51.676;5.808;2024-01-06T01:11:27;6.22;;;2.58;;
62582;SDS011;48641;51.676;5.808;2024-01-06T01:13:53;5.75;;;2.63;;
62582;SDS011;48641;51.676;5.808;2024-01-06T01:16:19;6.55;;;2.95;;
62582;SDS011;48641;51.676;5.808;2024-01-06T01:18:44;4.97;;;2.20;;
62582;SDS011;48641;51.676;5.808;2024-01-06T01:21:10;5.03;;;2.42;;
62582;SDS011;48641;51.676;5.808;2024-01-06T01:23:35;5.80;;;2.33;;
62582;SDS011;48641;51.676;5.808;2024-01-06T01:26:01;4.75;;;2.33;;
62582;SDS011;48641;51.676;5.808;2024-01-06T01:28:27;6.65;;;2.83;;
62582;SDS011;48641;51.676;5.808;2024-01-06T01:30:52;5.50;;;2.40;;
62582;SDS011;48641;51.676;5.808;2024-01-06T01:33:18;5.78;;;2.65;;
62582;SDS011;48641;51.676;5.808;2024-01-06T01:35:43;6.30;;;2.55;;
62582;SDS011;48641;51.676;5.808;2024-01-06T01:38:09;5.68;;;2.50;;
62582;SDS011;48641;51.676;5.808;2024-01-06T01:40:35;6.53;;;2.53;;
62582;SDS011;48641;51.676;5.808;2024-01-06T01:43:00;5.32;;;2.15;;
62582;SDS011;48641;51.676;5.808;2024-01-06T01:45:26;5.65;;;2.22;;
62582;SDS011;48641;51.676;5.808;2024-01-06T01:47:51;6.40;;;2.30;;
62582;SDS011;48641;51.676;5.808;2024-01-06T01:50:17;6.40;;;2.38;;
62582;SDS011;48641;51.676;5.808;2024-01-06T01:52:45;5.97;;;2.28;;
62582;SDS011;48641;51.676;5.808;2024-01-06T01:55:11;5.75;;;2.35;;
62582;SDS011;48641;51.676;5.808;2024-01-06T01:57:36;5.28;;;2.70;;
62582;SDS011;48641;51.676;5.808;2024-01-06T02:00:03;6.95;;;2.13;;
62582;SDS011;48641;51.676;5.808;2024-01-06T02:02:29;4.78;;;2.05;;
62582;SDS011;48641;51.676;5.808;2024-01-06T02:04:55;4.60;;;2.00;;
62582;SDS011;48641;51.676;5.808;2024-01-06T02:07:21;5.30;;;1.83;;
62582;SDS011;48641;51.676;5.808;2024-01-06T02:09:47;4.95;;;2.10;;
62582;SDS011;48641;51.676;5.808;2024-01-06T02:12:12;5.65;;;2.30;;
62582;SDS011;48641;51.676;5.808;2024-01-06T02:14:41;5.07;;;2.10;;
62582;SDS011;48641;51.676;5.808;2024-01-06T02:17:08;5.65;;;2.50;;
62582;SDS011;48641;51.676;5.808;2024-01-06T02:19:33;5.43;;;1.95;;
62582;SDS011;48641;51.676;5.808;2024-01-06T02:22:00;5.55;;;2.03;;
62582;SDS011;48641;51.676;5.808;2024-01-06T02:24:25;4.97;;;2.10;;
62582;SDS011;48641;51.676;5.808;2024-01-06T02:26:51;6.07;;;2.08;;
62582;SDS011;48641;51.676;5.808;2024-01-06T02:29:16;4.90;;;1.88;;
62582;SDS011;48641;51.676;5.808;2024-01-06T02:31:42;5.07;;;2.00;;
62582;SDS011;48641;51.676;5.808;2024-01-06T02:34:08;4.90;;;2.15;;
62582;SDS011;48641;51.676;5.808;2024-01-06T02:36:33;5.10;;;2.20;;
62582;SDS011;48641;51.676;5.808;2024-01-06T02:38:59;4.22;;;1.83;;
62582;SDS011;48641;51.676;5.808;2024-01-06T02:41:24;5.43;;;2.25;;
62582;SDS011;48641;51.676;5.808;2024-01-06T02:43:50;5.05;;;1.90;;
62582;SDS011;48641;51.676;5.808;2024-01-06T02:46:15;4.82;;;1.95;;
62582;SDS011;48641;51.676;5.808;2024-01-06T02:48:41;5.47;;;2.17;;
62582;SDS011;48641;51.676;5.808;2024-01-06T02:51:06;5.80;;;2.05;;
62582;SDS011;48641;51.676;5.808;2024-01-06T02:53:32;4.45;;;1.77;;
62582;SDS011;48641;51.676;5.808;2024-01-06T02:55:58;6.00;;;2.42;;
62582;SDS011;48641;51.676;5.808;2024-01-06T02:58:23;5.00;;;2.05;;
62582;SDS011;48641;51.676;5.808;2024-01-06T03:00:52;5.70;;;2.20;;
62582;SDS011;48641;51.676;5.808;2024-01-06T03:03:17;5.97;;;2.08;;
62582;SDS011;48641;51.676;5.808;2024-01-06T03:05:43;5.43;;;1.80;;
62582;SDS011;48641;51.676;5.808;2024-01-06T03:08:09;3.38;;;1.58;;
62582;SDS011;48641;51.676;5.808;2024-01-06T03:10:34;4.32;;;1.70;;
62582;SDS011;48641;51.676;5.808;2024-01-06T03:13:01;4.72;;;1.70;;
62582;SDS011;48641;51.676;5.808;2024-01-06T03:15:26;4.63;;;1.90;;
62582;SDS011;48641;51.676;5.808;2024-01-06T03:17:52;5.05;;;1.70;;
62582;SDS011;48641;51.676;5.808;2024-01-06T03:20:18;4.03;;;1.70;;
62582;SDS011;48641;51.676;5.808;2024-01-06T03:22:43;5.88;;;2.20;;
62582;SDS011;48641;51.676;5.808;2024-01-06T03:25:09;4.28;;;1.70;;
62582;SDS011;48641;51.676;5.808;2024-01-06T03:27:34;5.28;;;1.80;;
62582;SDS011;48641;51.676;5.808;2024-01-06T03:30:00;4.07;;;1.67;;
62582;SDS011;48641;51.676;5.808;2024-01-06T03:32:25;4.70;;;1.80;;
62582;SDS011;48641;51.676;5.808;2024-01-06T03:34:53;4.55;;;1.70;;
62582;SDS011;48641;51.676;5.808;2024-01-06T03:37:18;5.13;;;1.88;;
62582;SDS011;48641;51.676;5.808;2024-01-06T03:39:44;4.32;;;1.80;;
62582;SDS011;48641;51.676;5.808;2024-01-06T03:42:10;4.72;;;2.00;;
62582;SDS011;48641;51.676;5.808;2024-01-06T03:44:35;3.97;;;1.50;;
62582;SDS011;48641;51.676;5.808;2024-01-06T03:47:01;4.30;;;1.70;;
62582;SDS011;48641;51.676;5.808;2024-01-06T03:49:27;4.25;;;1.60;;
62582;SDS011;48641;51.676;5.808;2024-01-06T03:51:52;4.93;;;1.80;;
62582;SDS011;48641;51.676;5.808;2024-01-06T03:54:18;3.60;;;1.63;;
62582;SDS011;48641;51.676;5.808;2024-01-06T03:56:43;4.45;;;1.63;;
62582;SDS011;48641;51.676;5.808;2024-01-06T03:59:09;5.82;;;1.90;;
62582;SDS011;48641;51.676;5.808;2024-01-06T04:01:34;4.38;;;1.63;;
62582;SDS011;48641;51.676;5.808;2024-01-06T04:04:04;3.90;;;1.88;;
62582;SDS011;48641;51.676;5.808;2024-01-06T04:06:30;6.07;;;1.90;;
62582;SDS011;48641;51.676;5.808;2024-01-06T04:08:59;3.70;;;1.67;;
62582;SDS011;48641;51.676;5.808;2024-01-06T04:11:25;4.43;;;1.60;;
62582;SDS011;48641;51.676;5.808;2024-01-06T04:13:51;5.50;;;1.90;;
62582;SDS011;48641;51.676;5.808;2024-01-06T04:16:16;4.25;;;1.63;;
62582;SDS011;48641;51.676;5.808;2024-01-06T04:18:42;4.18;;;1.70;;
62582;SDS011;48641;51.676;5.808;2024-01-06T04:21:07;4.47;;;1.75;;
62582;SDS011;48641;51.676;5.808;2024-01-06T04:23:34;4.20;;;1.60;;
62582;SDS011;48641;51.676;5.808;2024-01-06T04:25:59;3.95;;;1.60;;
62582;SDS011;48641;51.676;5.808;2024-01-06T04:28:25;5.57;;;1.83;;
62582;SDS011;48641;51.676;5.808;2024-01-06T04:30:50;3.50;;;1.50;;
62582;SDS011;48641;51.676;5.808;2024-01-06T04:33:16;3.90;;;1.58;;
62582;SDS011;48641;51.676;5.808;2024-01-06T04:35:42;4.72;;;1.67;;
62582;SDS011;48641;51.676;5.808;2024-01-06T04:38:07;4.82;;;1.70;;
62582;SDS011;48641;51.676;5.808;2024-01-06T04:40:34;3.85;;;1.60;;
62582;SDS011;48641;51.676;5.808;2024-01-06T04:42:59;4.95;;;1.55;;
62582;SDS011;48641;51.676;5.808;2024-01-06T04:45:25;4.05;;;1.48;;
62582;SDS011;48641;51.676;5.808;2024-01-06T04:47:50;5.50;;;1.98;;
62582;SDS011;48641;51.676;5.808;2024-01-06T04:50:16;3.55;;;1.60;;
62582;SDS011;48641;51.676;5.808;2024-01-06T04:52:42;4.03;;;1.50;;
62582;SDS011;48641;51.676;5.808;2024-01-06T04:55:08;4.00;;;1.70;;
62582;SDS011;48641;51.676;5.808;2024-01-06T04:57:34;3.95;;;1.60;;
62582;SDS011;48641;51.676;5.808;2024-01-06T05:00:00;5.15;;;2.70;;
62582;SDS011;48641;51.676;5.808;2024-01-06T05:02:26;4.53;;;1.60;;
62582;SDS011;48641;51.676;5.808;2024-01-06T05:04:51;3.58;;;1.52;;
62582;SDS011;48641;51.676;5.808;2024-01-06T05:07:17;4.53;;;1.70;;
62582;SDS011;48641;51.676;5.808;2024-01-06T05:09:42;3.80;;;1.40;;
62582;SDS011;48641;51.676;5.808;2024-01-06T05:12:08;4.45;;;1.52;;
62582;SDS011;48641;51.676;5.808;2024-01-06T05:14:34;4.13;;;1.67;;
62582;SDS011;48641;51.676;5.808;2024-01-06T05:16:59;3.22;;;1.40;;
62582;SDS011;48641;51.676;5.808;2024-01-06T05:19:25;3.88;;;1.55;;
62582;SDS011;48641;51.676;5.808;2024-01-06T05:21:50;4.72;;;1.42;;
62582;SDS011;48641;51.676;5.808;2024-01-06T05:24:16;4.13;;;1.45;;
62582;SDS011;48641;51.676;5.808;2024-01-06T05:26:42;3.65;;;1.42;;
62582;SDS011;48641;51.676;5.808;2024-01-06T05:29:08;3.10;;;1.42;;
62582;SDS011;48641;51.676;5.808;2024-01-06T05:31:34;4.80;;;1.77;;
62582;SDS011;48641;51.676;5.808;2024-01-06T05:33:59;5.07;;;1.60;;
62582;SDS011;48641;51.676;5.808;2024-01-06T05:36:25;3.85;;;1.50;;
62582;SDS011;48641;51.676;5.808;2024-01-06T05:38:50;4.63;;;1.85;;
62582;SDS011;48641;51.676;5.808;2024-01-06T05:41:16;3.88;;;1.40;;
62582;SDS011;48641;51.676;5.808;2024-01-06T05:43:42;5.03;;;1.58;;
62582;SDS011;48641;51.676;5.808;2024-01-06T05:46:07;4.43;;;1.70;;
62582;SDS011;48641;51.676;5.808;2024-01-06T05:48:35;3.85;;;1.58;;
62582;SDS011;48641;51.676;5.808;2024-01-06T05:51:01;3.38;;;1.45;;
62582;SDS011;48641;51.676;5.808;2024-01-06T05:53:28;3.95;;;1.45;;
62582;SDS011;48641;51.676;5.808;2024-01-06T05:55:54;3.40;;;1.45;;
62582;SDS011;48641;51.676;5.808;2024-01-06T05:58:20;2.83;;;1.30;;
62582;SDS011;48641;51.676;5.808;2024-01-06T06:00:45;3.95;;;1.50;;
62582;SDS011;48641;51.676;5.808;2024-01-06T06:03:11;2.60;;;1.30;;
62582;SDS011;48641;51.676;5.808;2024-01-06T06:05:37;3.40;;;1.52;;
62582;SDS011;48641;51.676;5.808;2024-01-06T06:08:03;2.80;;;1.23;;
62582;SDS011;48641;51.676;5.808;2024-01-06T06:10:29;3.17;;;1.40;;
62582;SDS011;48641;51.676;5.808;2024-01-06T06:13:05;4.43;;;1.50;;
62582;SDS011;48641;51.676;5.808;2024-01-06T06:15:34;3.53;;;1.45;;
62582;SDS011;48641;51.676;5.808;2024-01-06T06:18:00;4.10;;;1.48;;
62582;SDS011;48641;51.676;5.808;2024-01-06T06:20:25;3.22;;;1.30;;
62582;SDS011;48641;51.676;5.808;2024-01-06T06:22:51;3.80;;;1.30;;
62582;SDS011;48641;51.676;5.808;2024-01-06T06:25:17;4.10;;;1.48;;
62582;SDS011;48641;51.676;5.808;2024-01-06T06:27:48;4.15;;;1.48;;
62582;SDS011;48641;51.676;5.808;2024-01-06T06:30:14;4.85;;;1.50;;
62582;SDS011;48641;51.676;5.808;2024-01-06T06:32:39;3.80;;;1.50;;
62582;SDS011;48641;51.676;5.808;2024-01-06T06:35:05;3.95;;;1.60;;
62582;SDS011;48641;51.676;5.808;2024-01-06T06:37:31;3.80;;;1.40;;
62582;SDS011;48641;51.676;5.808;2024-01-06T06:39:57;3.38;;;1.48;;
62582;SDS011;48641;51.676;5.808;2024-01-06T06:42:22;4.55;;;1.38;;
62582;SDS011;48641;51.676;5.808;2024-01-06T06:44:48;3.55;;;1.35;;
62582;SDS011;48641;51.676;5.808;2024-01-06T06:47:13;3.78;;;1.52;;
62582;SDS011;48641;51.676;5.808;2024-01-06T06:49:39;3.78;;;1.42;;
62582;SDS011;48641;51.676;5.808;2024-01-06T06:52:05;3.33;;;1.33;;
62582;SDS011;48641;51.676;5.808;2024-01-06T06:54:32;3.50;;;1.25;;
62582;SDS011;48641;51.676;5.808;2024-01-06T06:56:57;3.80;;;1.30;;
62582;SDS011;48641;51.676;5.808;2024-01-06T06:59:23;3.38;;;1.33;;
62582;SDS011;48641;51.676;5.808;2024-01-06T07:01:49;3.17;;;1.33;;
62582;SDS011;48641;51.676;5.808;2024-01-06T07:04:15;3.15;;;1.30;;
62582;SDS011;48641;51.676;5.808;2024-01-06T07:06:40;4.50;;;1.52;;
62582;SDS011;48641;51.676;5.808;2024-01-06T07:09:06;3.60;;;1.35;;
62582;SDS011;48641;51.676;5.808;2024-01-06T07:11:32;2.50;;;1.20;;
62582;SDS011;48641;51.676;5.808;2024-01-06T07:13:57;2.85;;;1.25;;
62582;SDS011;48641;51.676;5.808;2024-01-06T07:16:23;2.42;;;0.98;;
62582;SDS011;48641;51.676;5.808;2024-01-06T07:18:48;3.65;;;1.30;;
62582;SDS011;48641;51.676;5.808;2024-01-06T07:21:14;2.25;;;1.00;;
62582;SDS011;48641;51.676;5.808;2024-01-06T07:23:39;2.70;;;1.20;;
62582;SDS011;48641;51.676;5.808;2024-01-06T07:26:05;2.47;;;1.10;;
62582;SDS011;48641;51.676;5.808;2024-01-06T07:28:32;2.50;;;1.30;;
62582;SDS011;48641;51.676;5.808;2024-01-06T07:30:57;3.63;;;1.23;;
62582;SDS011;48641;51.676;5.808;2024-01-06T07:33:23;2.75;;;0.98;;
62582;SDS011;48641;51.676;5.808;2024-01-06T07:35:49;4.32;;;1.10;;
62582;SDS011;48641;51.676;5.808;2024-01-06T07:38:15;3.45;;;1.30;;
62582;SDS011;48641;51.676;5.808;2024-01-06T07:40:41;2.38;;;1.10;;
62582;SDS011;48641;51.676;5.808;2024-01-06T07:43:09;4.05;;;1.23;;
62582;SDS011;48641;51.676;5.808;2024-01-06T07:45:34;3.97;;;1.40;;
62582;SDS011;48641;51.676;5.808;2024-01-06T07:48:00;4.03;;;1.30;;
62582;SDS011;48641;51.676;5.808;2024-01-06T07:50:26;3.47;;;1.40;;
62582;SDS011;48641;51.676;5.808;2024-01-06T07:52:56;2.25;;;1.10;;
62582;SDS011;48641;51.676;5.808;2024-01-06T07:55:23;4.47;;;1.40;;
62582;SDS011;48641;51.676;5.808;2024-01-06T07:57:48;2.38;;;1.02;;
62582;SDS011;48641;51.676;5.808;2024-01-06T08:00:14;3.65;;;1.02;;
62582;SDS011;48641;51.676;5.808;2024-01-06T08:02:40;4.07;;;1.77;;
62582;SDS011;48641;51.676;5.808;2024-01-06T08:05:06;3.70;;;1.35;;
62582;SDS011;48641;51.676;5.808;2024-01-06T08:07:32;2.88;;;1.13;;
62582;SDS011;48641;51.676;5.808;2024-01-06T08:09:58;3.35;;;1.17;;
62582;SDS011;48641;51.676;5.808;2024-01-06T08:12:23;3.42;;;1.27;;
62582;SDS011;48641;51.676;5.808;2024-01-06T08:14:49;2.65;;;1.15;;
62582;SDS011;48641;51.676;5.808;2024-01-06T08:17:14;3.50;;;1.20;;
62582;SDS011;48641;51.676;5.808;2024-01-06T08:19:40;3.72;;;1.20;;
62582;SDS011;48641;51.676;5.808;2024-01-06T08:22:06;2.20;;;1.00;;
62582;SDS011;48641;51.676;5.808;2024-01-06T08:24:32;2.97;;;1.00;;
62582;SDS011;48641;51.676;5.808;2024-01-06T08:26:58;2.38;;;0.95;;
62582;SDS011;48641;51.676;5.808;2024-01-06T08:29:24;2.97;;;1.20;;
62582;SDS011;48641;51.676;5.808;2024-01-06T08:31:50;2.90;;;1.10;;
62582;SDS011;48641;51.676;5.808;2024-01-06T08:34:17;2.45;;;0.93;;
62582;SDS011;48641;51.676;5.808;2024-01-06T08:36:43;3.72;;;1.15;;
62582;SDS011;48641;51.676;5.808;2024-01-06T08:39:09;2.17;;;0.90;;
62582;SDS011;48641;51.676;5.808;2024-01-06T08:41:34;2.55;;;1.35;;
62582;SDS011;48641;51.676;5.808;2024-01-06T08:44:00;3.05;;;1.00;;
62582;SDS011;48641;51.676;5.808;2024-01-06T08:46:26;2.20;;;1.10;;
62582;SDS011;48641;51.676;5.808;2024-01-06T08:48:52;2.78;;;1.00;;
62582;SDS011;48641;51.676;5.808;2024-01-06T08:51:17;2.70;;;0.95;;
62582;SDS011;48641;51.676;5.808;2024-01-06T08:53:45;2.92;;;0.90;;
62582;SDS011;48641;51.676;5.808;2024-01-06T08:56:14;3.38;;;0.90;;
62582;SDS011;48641;51.676;5.808;2024-01-06T08:58:41;4.47;;;1.20;;
62582;SDS011;48641;51.676;5.808;2024-01-06T09:01:09;4.85;;;1.20;;
62582;SDS011;48641;51.676;5.808;2024-01-06T09:03:34;3.15;;;1.00;;
62582;SDS011;48641;51.676;5.808;2024-01-06T09:06:00;4.30;;;1.10;;
62582;SDS011;48641;51.676;5.808;2024-01-06T09:08:25;2.80;;;1.10;;
62582;SDS011;48641;51.676;5.808;2024-01-06T09:10:51;6.00;;;0.98;;
62582;SDS011;48641;51.676;5.808;2024-01-06T09:15:46;2.40;;;1.10;;
62582;SDS011;48641;51.676;5.808;2024-01-06T09:18:12;2.20;;;0.90;;
62582;SDS011;48641;51.676;5.808;2024-01-06T09:20:38;3.78;;;1.20;;
62582;SDS011;48641;51.676;5.808;2024-01-06T09:23:03;3.58;;;1.10;;
62582;SDS011;48641;51.676;5.808;2024-01-06T09:25:29;2.08;;;0.90;;
62582;SDS011;48641;51.676;5.808;2024-01-06T09:27:55;2.90;;;0.95;;
62582;SDS011;48641;51.676;5.808;2024-01-06T09:30:20;3.83;;;1.00;;
62582;SDS011;48641;51.676;5.808;2024-01-06T09:32:46;4.68;;;1.10;;
62582;SDS011;48641;51.676;5.808;2024-01-06T09:35:13;2.58;;;0.90;;
62582;SDS011;48641;51.676;5.808;2024-01-06T09:37:39;3.25;;;0.93;;
62582;SDS011;48641;51.676;5.808;2024-01-06T09:40:05;2.53;;;0.85;;
62582;SDS011;48641;51.676;5.808;2024-01-06T09:42:35;1.60;;;0.82;;
62582;SDS011;48641;51.676;5.808;2024-01-06T09:45:01;5.75;;;0.93;;
62582;SDS011;48641;51.676;5.808;2024-01-06T09:47:26;2.35;;;0.90;;
62582;SDS011;48641;51.676;5.808;2024-01-06T09:49:55;3.13;;;0.80;;
62582;SDS011;48641;51.676;5.808;2024-01-06T09:52:25;2.28;;;1.00;;
62582;SDS011;48641;51.676;5.808;2024-01-06T09:54:53;2.45;;;0.80;;
62582;SDS011;48641;51.676;5.808;2024-01-06T09:57:20;2.83;;;0.90;;
62582;SDS011;48641;51.676;5.808;2024-01-06T09:59:46;2.58;;;0.82;;
62582;SDS011;48641;51.676;5.808;2024-01-06T10:02:15;2.92;;;0.90;;
62582;SDS011;48641;51.676;5.808;2024-01-06T10:04:42;3.97;;;1.02;;
62582;SDS011;48641;51.676;5.808;2024-01-06T10:07:08;3.03;;;1.00;;
62582;SDS011;48641;51.676;5.808;2024-01-06T10:09:37;2.13;;;0.90;;
62582;SDS011;48641;51.676;5.808;2024-01-06T10:12:03;3.20;;;0.95;;
62582;SDS011;48641;51.676;5.808;2024-01-06T10:14:28;2.92;;;1.10;;
62582;SDS011;48641;51.676;5.808;2024-01-06T10:16:54;4.10;;;1.00;;
62582;SDS011;48641;51.676;5.808;2024-01-06T10:19:20;2.95;;;1.08;;
62582;SDS011;48641;51.676;5.808;2024-01-06T10:21:46;2.80;;;1.10;;
62582;SDS011;48641;51.676;5.808;2024-01-06T10:24:11;2.05;;;0.90;;
62582;SDS011;48641;51.676;5.808;2024-01-06T10:26:37;2.17;;;0.95;;
62582;SDS011;48641;51.676;5.808;2024-01-06T10:29:04;4.05;;;1.10;;
62582;SDS011;48641;51.676;5.808;2024-01-06T10:31:29;2.13;;;1.05;;
62582;SDS011;48641;51.676;5.808;2024-01-06T10:33:55;4.63;;;0.90;;
62582;SDS011;48641;51.676;5.808;2024-01-06T10:36:24;1.63;;;0.68;;
62582;SDS011;48641;51.676;5.808;2024-01-06T10:38:52;3.40;;;1.10;;
62582;SDS011;48641;51.676;5.808;2024-01-06T10:41:17;2.63;;;0.90;;
62582;SDS011;48641;51.676;5.808;2024-01-06T10:43:45;3.15;;;1.00;;
62582;SDS011;48641;51.676;5.808;2024-01-06T10:46:12;2.78;;;1.00;;
62582;SDS011;48641;51.676;5.808;2024-01-06T10:48:40;3.58;;;0.90;;
62582;SDS011;48641;51.676;5.808;2024-01-06T10:51:10;2.58;;;1.00;;
62582;SDS011;48641;51.676;5.808;2024-01-06T10:53:37;1.98;;;1.00;;
62582;SDS011;48641;51.676;5.808;2024-01-06T10:56:05;2.10;;;0.95;;
62582;SDS011;48641;51.676;5.808;2024-01-06T10:58:38;2.20;;;0.90;;
62582;SDS011;48641;51.676;5.808;2024-01-06T11:01:10;3.97;;;1.20;;
62582;SDS011;48641;51.676;5.808;2024-01-06T11:03:37;2.92;;;0.98;;
62582;SDS011;48641;51.676;5.808;2024-01-06T11:06:04;3.25;;;0.93;;
62582;SDS011;48641;51.676;5.808;2024-01-06T11:08:32;2.50;;;0.90;;
62582;SDS011;48641;51.676;5.808;2024-01-06T11:11:00;2.60;;;1.17;;
62582;SDS011;48641;51.676;5.808;2024-01-06T11:13:27;3.30;;;1.00;;
62582;SDS011;48641;51.676;5.808;2024-01-06T11:15:53;2.83;;;0.90;;
62582;SDS011;48641;51.676;5.808;2024-01-06T11:18:32;3.05;;;1.10;;
62582;SDS011;48641;51.676;5.808;2024-01-06T11:21:14;2.17;;;0.98;;
62582;SDS011;48641;51.676;5.808;2024-01-06T11:26:31;3.35;;;1.05;;
62582;SDS011;48641;51.676;5.808;2024-01-06T11:28:57;2.80;;;1.20;;
62582;SDS011;48641;51.676;5.808;2024-01-06T11:31:31;2.15;;;1.00;;
62582;SDS011;48641;51.676;5.808;2024-01-06T11:33:56;7.05;;;2.58;;
62582;SDS011;48641;51.676;5.808;2024-01-06T11:36:49;4.20;;;1.20;;
62582;SDS011;48641;51.676;5.808;2024-01-06T11:42:10;3.92;;;1.13;;
62582;SDS011;48641;51.676;5.808;2024-01-06T11:44:38;3.15;;;1.20;;
62582;SDS011;48641;51.676;5.808;2024-01-06T11:47:04;2.92;;;1.23;;
62582;SDS011;48641;51.676;5.808;2024-01-06T11:49:31;4.80;;;1.30;;
62582;SDS011;48641;51.676;5.808;2024-01-06T11:51:57;6.15;;;2.00;;
62582;SDS011;48641;51.676;5.808;2024-01-06T11:54:23;5.45;;;1.52;;
62582;SDS011;48641;51.676;5.808;2024-01-06T11:56:49;4.82;;;1.65;;
62582;SDS011;48641;51.676;5.808;2024-01-06T11:59:18;13.35;;;5.15;;
62582;SDS011;48641;51.676;5.808;2024-01-06T12:01:44;9.60;;;2.83;;
62582;SDS011;48641;51.676;5.808;2024-01-06T12:04:10;7.82;;;2.42;;
62582;SDS011;48641;51.676;5.808;2024-01-06T12:06:39;8.07;;;2.38;;
62582;SDS011;48641;51.676;5.808;2024-01-06T12:11:30;7.50;;;2.80;;
62582;SDS011;48641;51.676;5.808;2024-01-06T12:13:56;6.15;;;2.40;;
62582;SDS011;48641;51.676;5.808;2024-01-06T12:16:22;5.45;;;2.45;;
62582;SDS011;48641;51.676;5.808;2024-01-06T12:18:52;8.25;;;2.85;;
62582;SDS011;48641;51.676;5.808;2024-01-06T12:21:22;7.93;;;2.70;;
62582;SDS011;48641;51.676;5.808;2024-01-06T12:23:48;6.68;;;2.30;;
62582;SDS011;48641;51.676;5.808;2024-01-06T12:26:16;7.38;;;2.28;;
62582;SDS011;48641;51.676;5.808;2024-01-06T12:28:44;6.88;;;2.15;;
62582;SDS011;48641;51.676;5.808;2024-01-06T12:31:10;7.13;;;2.42;;
62582;SDS011;48641;51.676;5.808;2024-01-06T12:33:37;7.90;;;2.67;;
62582;SDS011;48641;51.676;5.808;2024-01-06T12:36:06;6.63;;;2.20;;
62582;SDS011;48641;51.676;5.808;2024-01-06T12:38:36;5.35;;;2.20;;
62582;SDS011;48641;51.676;5.808;2024-01-06T12:43:31;5.13;;;1.98;;
62582;SDS011;48641;51.676;5.808;2024-01-06T12:45:56;7.70;;;2.28;;
62582;SDS011;48641;51.676;5.808;2024-01-06T12:48:23;7.43;;;2.45;;
62582;SDS011;48641;51.676;5.808;2024-01-06T12:50:49;7.13;;;2.53;;
62582;SDS011;48641;51.676;5.808;2024-01-06T12:53:14;8.77;;;2.60;;
62582;SDS011;48641;51.676;5.808;2024-01-06T12:55:42;7.05;;;2.50;;
62582;SDS011;48641;51.676;5.808;2024-01-06T12:58:08;6.72;;;2.30;;
62582;SDS011;48641;51.676;5.808;2024-01-06T13:00:33;7.53;;;2.50;;
62582;SDS011;48641;51.676;5.808;2024-01-06T13:02:59;8.15;;;3.08;;
62582;SDS011;48641;51.676;5.808;2024-01-06T13:05:25;7.18;;;2.42;;
62582;SDS011;48641;51.676;5.808;2024-01-06T13:07:50;9.40;;;2.80;;
62582;SDS011;48641;51.676;5.808;2024-01-06T13:10:16;7.47;;;2.67;;
62582;SDS011;48641;51.676;5.808;2024-01-06T13:12:42;8.57;;;2.85;;
62582;SDS011;48641;51.676;5.808;2024-01-06T13:15:08;8.38;;;2.88;;
62582;SDS011;48641;51.676;5.808;2024-01-06T13:17:36;6.40;;;2.60;;
62582;SDS011;48641;51.676;5.808;2024-01-06T13:20:02;6.25;;;2.55;;
62582;SDS011;48641;51.676;5.808;2024-01-06T13:22:29;6.57;;;2.55;;
62582;SDS011;48641;51.676;5.808;2024-01-06T13:24:55;7.65;;;2.58;;
62582;SDS011;48641;51.676;5.808;2024-01-06T13:27:21;6.68;;;2.38;;
62582;SDS011;48641;51.676;5.808;2024-01-06T13:29:47;7.95;;;2.95;;
62582;SDS011;48641;51.676;5.808;2024-01-06T13:32:12;8.85;;;4.35;;
62582;SDS011;48641;51.676;5.808;2024-01-06T13:34:39;9.82;;;5.00;;
62582;SDS011;48641;51.676;5.808;2024-01-06T13:37:04;13.05;;;4.97;;
62582;SDS011;48641;51.676;5.808;2024-01-06T13:39:31;18.75;;;6.03;;
62582;SDS011;48641;51.676;5.808;2024-01-06T13:41:57;13.98;;;5.55;;
62582;SDS011;48641;51.676;5.808;2024-01-06T13:44:23;15.43;;;7.28;;
62582;SDS011;48641;51.676;5.808;2024-01-06T13:46:48;14.40;;;6.78;;
62582;SDS011;48641;51.676;5.808;2024-01-06T13:49:16;13.38;;;6.18;;
62582;SDS011;48641;51.676;5.808;2024-01-06T13:51:42;16.92;;;6.35;;
62582;SDS011;48641;51.676;5.808;2024-01-06T13:54:08;16.50;;;5.53;;
62582;SDS011;48641;51.676;5.808;2024-01-06T13:56:34;13.23;;;6.07;;
62582;SDS011;48641;51.676;5.808;2024-01-06T13:59:01;12.93;;;6.10;;
62582;SDS011;48641;51.676;5.808;2024-01-06T14:01:27;14.55;;;6.50;;
62582;SDS011;48641;51.676;5.808;2024-01-06T14:03:53;14.80;;;5.95;;
62582;SDS011;48641;51.676;5.808;2024-01-06T14:08:49;24.02;;;6.07;;
62582;SDS011;48641;51.676;5.808;2024-01-06T14:11:17;22.70;;;5.70;;
62582;SDS011;48641;51.676;5.808;2024-01-06T14:13:43;18.50;;;5.50;;
62582;SDS011;48641;51.676;5.808;2024-01-06T14:16:13;17.55;;;5.57;;
62582;SDS011;48641;51.676;5.808;2024-01-06T14:18:39;14.73;;;5.00;;
62582;SDS011;48641;51.676;5.808;2024-01-06T14:21:04;18.77;;;5.57;;
62582;SDS011;48641;51.676;5.808;2024-01-06T14:23:30;13.52;;;5.05;;
62582;SDS011;48641;51.676;5.808;2024-01-06T14:25:57;12.18;;;4.47;;
62582;SDS011;48641;51.676;5.808;2024-01-06T14:28:23;14.52;;;4.80;;
62582;SDS011;48641;51.676;5.808;2024-01-06T14:30:49;11.43;;;4.28;;
62582;SDS011;48641;51.676;5.808;2024-01-06T14:33:15;10.43;;;3.78;;
62582;SDS011;48641;51.676;5.808;2024-01-06T14:35:40;9.60;;;3.95;;
62582;SDS011;48641;51.676;5.808;2024-01-06T14:38:07;14.95;;;4.38;;
62582;SDS011;48641;51.676;5.808;2024-01-06T14:40:33;8.60;;;3.88;;
62582;SDS011;48641;51.676;5.808;2024-01-06T14:42:59;15.88;;;4.15;;
62582;SDS011;48641;51.676;5.808;2024-01-06T14:45:27;13.07;;;3.67;;
62582;SDS011;48641;51.676;5.808;2024-01-06T14:47:53;11.27;;;4.10;;
62582;SDS011;48641;51.676;5.808;2024-01-06T14:50:18;8.90;;;3.65;;
62582;SDS011;48641;51.676;5.808;2024-01-06T14:52:44;8.13;;;3.40;;
62582;SDS011;48641;51.676;5.808;2024-01-06T14:55:09;9.40;;;3.70;;